sensor_id;sensor_type;location;lat;lon;timestamp;P1;durP1;ratioP1;P2;durP2;ratioP2
71366;SDS011;60030;52.274;8.040;2022-12-24T00:01:34;10.70;;;3.07;;
71366;SDS011;60030;52.274;8.040;2022-12-24T00:04:01;8.57;;;3.20;;
71366;SDS011;60030;52.274;8.040;2022-12-24T00:06:28;11.27;;;3.57;;
71366;SDS011;60030;52.274;8.040;2022-12-24T00:08:55;8.57;;;3.03;;
71366;SDS011;60030;52.274;8.040;2022-12-24T00:11:22;9.17;;;2.87;;
71366;SDS011;60030;52.274;8.040;2022-12-24T00:13:49;13.03;;;2.83;;
71366;SDS011;60030;52.274;8.040;2022-12-24T00:16:18;12.10;;;3.67;;
71366;SDS011;60030;52.274;8.040;2022-12-24T00:18:45;11.07;;;3.10;;
71366;SDS011;60030;52.274;8.040;2022-12-24T00:21:12;10.63;;;3.37;;
71366;SDS011;60030;52.274;8.040;2022-12-24T00:23:40;12.20;;;3.27;;
71366;SDS011;60030;52.274;8.040;2022-12-24T00:26:07;7.83;;;3.07;;
71366;SDS011;60030;52.274;8.040;2022-12-24T00:28:34;7.70;;;2.47;;
71366;SDS011;60030;52.274;8.040;2022-12-24T00:31:05;8.33;;;2.70;;
71366;SDS011;60030;52.274;8.040;2022-12-24T00:33:35;9.33;;;2.53;;
71366;SDS011;60030;52.274;8.040;2022-12-24T00:36:02;8.67;;;2.73;;
71366;SDS011;60030;52.274;8.040;2022-12-24T00:38:30;7.17;;;2.37;;
71366;SDS011;60030;52.274;8.040;2022-12-24T00:40:58;9.17;;;2.53;;
71366;SDS011;60030;52.274;8.040;2022-12-24T00:43:26;9.13;;;3.30;;
71366;SDS011;60030;52.274;8.040;2022-12-24T00:45:53;9.63;;;2.70;;
71366;SDS011;60030;52.274;8.040;2022-12-24T00:48:20;7.23;;;2.43;;
71366;SDS011;60030;52.274;8.040;2022-12-24T00:50:49;10.67;;;4.10;;
71366;SDS011;60030;52.274;8.040;2022-12-24T00:53:16;14.53;;;3.30;;
71366;SDS011;60030;52.274;8.040;2022-12-24T00:55:44;10.13;;;2.73;;
71366;SDS011;60030;52.274;8.040;2022-12-24T00:58:11;11.60;;;3.23;;
71366;SDS011;60030;52.274;8.040;2022-12-24T01:00:38;13.90;;;3.37;;
71366;SDS011;60030;52.274;8.040;2022-12-24T01:03:05;7.00;;;2.47;;
71366;SDS011;60030;52.274;8.040;2022-12-24T01:05:32;12.40;;;2.80;;
71366;SDS011;60030;52.274;8.040;2022-12-24T01:08:00;13.33;;;3.23;;
71366;SDS011;60030;52.274;8.040;2022-12-24T01:10:27;10.27;;;2.70;;
71366;SDS011;60030;52.274;8.040;2022-12-24T01:12:54;8.33;;;3.00;;
71366;SDS011;60030;52.274;8.040;2022-12-24T01:15:22;14.37;;;3.10;;
71366;SDS011;60030;52.274;8.040;2022-12-24T01:17:48;10.20;;;2.90;;
71366;SDS011;60030;52.274;8.040;2022-12-24T01:20:16;12.07;;;2.67;;
71366;SDS011;60030;52.274;8.040;2022-12-24T01:22:43;9.17;;;2.70;;
71366;SDS011;60030;52.274;8.040;2022-12-24T01:25:12;13.10;;;2.80;;
71366;SDS011;60030;52.274;8.040;2022-12-24T01:27:39;10.60;;;2.87;;
71366;SDS011;60030;52.274;8.040;2022-12-24T01:30:07;12.57;;;2.53;;
71366;SDS011;60030;52.274;8.040;2022-12-24T01:32:36;12.27;;;2.57;;
71366;SDS011;60030;52.274;8.040;2022-12-24T01:35:04;10.37;;;2.77;;
71366;SDS011;60030;52.274;8.040;2022-12-24T01:37:31;10.27;;;2.77;;
71366;SDS011;60030;52.274;8.040;2022-12-24T01:39:58;12.23;;;3.10;;
71366;SDS011;60030;52.274;8.040;2022-12-24T01:42:40;18.13;;;3.10;;
71366;SDS011;60030;52.274;8.040;2022-12-24T01:45:39;12.50;;;3.40;;
71366;SDS011;60030;52.274;8.040;2022-12-24T01:48:11;19.23;;;3.47;;
71366;SDS011;60030;52.274;8.040;2022-12-24T01:50:43;14.87;;;3.07;;
71366;SDS011;60030;52.274;8.040;2022-12-24T01:53:10;17.63;;;3.30;;
71366;SDS011;60030;52.274;8.040;2022-12-24T01:55:40;11.70;;;2.97;;
71366;SDS011;60030;52.274;8.040;2022-12-24T01:58:10;18.80;;;3.97;;
71366;SDS011;60030;52.274;8.040;2022-12-24T02:00:39;17.30;;;3.43;;
71366;SDS011;60030;52.274;8.040;2022-12-24T02:03:06;14.93;;;3.07;;
71366;SDS011;60030;52.274;8.040;2022-12-24T02:05:35;17.93;;;4.07;;
71366;SDS011;60030;52.274;8.040;2022-12-24T02:08:07;16.23;;;3.20;;
71366;SDS011;60030;52.274;8.040;2022-12-24T02:10:35;22.07;;;3.83;;
71366;SDS011;60030;52.274;8.040;2022-12-24T02:13:02;17.03;;;3.10;;
71366;SDS011;60030;52.274;8.040;2022-12-24T02:15:33;14.80;;;3.10;;
71366;SDS011;60030;52.274;8.040;2022-12-24T02:18:12;12.40;;;2.80;;
71366;SDS011;60030;52.274;8.040;2022-12-24T02:20:53;13.93;;;3.03;;
71366;SDS011;60030;52.274;8.040;2022-12-24T02:32:36;15.13;;;2.83;;
71366;SDS011;60030;52.274;8.040;2022-12-24T02:35:11;14.53;;;3.23;;
71366;SDS011;60030;52.274;8.040;2022-12-24T02:37:44;15.33;;;3.47;;
71366;SDS011;60030;52.274;8.040;2022-12-24T02:40:17;14.03;;;3.27;;
71366;SDS011;60030;52.274;8.040;2022-12-24T02:42:49;18.33;;;2.90;;
71366;SDS011;60030;52.274;8.040;2022-12-24T02:45:21;16.30;;;4.07;;
71366;SDS011;60030;52.274;8.040;2022-12-24T02:47:50;15.27;;;3.10;;
71366;SDS011;60030;52.274;8.040;2022-12-24T02:50:20;17.13;;;3.63;;
71366;SDS011;60030;52.274;8.040;2022-12-24T02:52:47;19.90;;;3.83;;
71366;SDS011;60030;52.274;8.040;2022-12-24T02:55:16;14.03;;;3.37;;
71366;SDS011;60030;52.274;8.040;2022-12-24T02:57:50;16.67;;;3.17;;
71366;SDS011;60030;52.274;8.040;2022-12-24T03:00:27;17.00;;;3.30;;
71366;SDS011;60030;52.274;8.040;2022-12-24T03:03:04;11.73;;;2.40;;
71366;SDS011;60030;52.274;8.040;2022-12-24T03:05:41;14.23;;;2.80;;
71366;SDS011;60030;52.274;8.040;2022-12-24T03:08:14;15.57;;;3.10;;
71366;SDS011;60030;52.274;8.040;2022-12-24T03:10:47;12.03;;;3.00;;
71366;SDS011;60030;52.274;8.040;2022-12-24T03:13:19;17.90;;;2.93;;
71366;SDS011;60030;52.274;8.040;2022-12-24T03:15:49;14.03;;;3.30;;
71366;SDS011;60030;52.274;8.040;2022-12-24T03:18:18;18.47;;;3.97;;
71366;SDS011;60030;52.274;8.040;2022-12-24T03:20:49;15.30;;;2.97;;
71366;SDS011;60030;52.274;8.040;2022-12-24T03:23:20;20.63;;;3.60;;
71366;SDS011;60030;52.274;8.040;2022-12-24T03:25:47;15.53;;;3.43;;
71366;SDS011;60030;52.274;8.040;2022-12-24T03:28:15;11.93;;;3.10;;
71366;SDS011;60030;52.274;8.040;2022-12-24T03:30:44;11.40;;;2.97;;
71366;SDS011;60030;52.274;8.040;2022-12-24T03:33:15;21.60;;;3.27;;
71366;SDS011;60030;52.274;8.040;2022-12-24T03:35:43;19.60;;;4.20;;
71366;SDS011;60030;52.274;8.040;2022-12-24T03:38:10;15.43;;;3.60;;
71366;SDS011;60030;52.274;8.040;2022-12-24T03:40:37;19.23;;;3.17;;
71366;SDS011;60030;52.274;8.040;2022-12-24T03:43:04;18.43;;;3.20;;
71366;SDS011;60030;52.274;8.040;2022-12-24T03:45:31;12.43;;;2.60;;
71366;SDS011;60030;52.274;8.040;2022-12-24T03:47:58;16.63;;;3.43;;
71366;SDS011;60030;52.274;8.040;2022-12-24T03:50:26;11.90;;;2.80;;
71366;SDS011;60030;52.274;8.040;2022-12-24T03:52:53;20.60;;;3.13;;
71366;SDS011;60030;52.274;8.040;2022-12-24T03:55:21;14.10;;;2.90;;
71366;SDS011;60030;52.274;8.040;2022-12-24T03:57:48;15.33;;;3.37;;
71366;SDS011;60030;52.274;8.040;2022-12-24T04:00:16;17.43;;;3.27;;
71366;SDS011;60030;52.274;8.040;2022-12-24T04:02:44;19.73;;;3.63;;
71366;SDS011;60030;52.274;8.040;2022-12-24T04:05:12;21.17;;;4.17;;
71366;SDS011;60030;52.274;8.040;2022-12-24T04:07:41;15.33;;;3.17;;
71366;SDS011;60030;52.274;8.040;2022-12-24T04:10:09;18.00;;;3.33;;
71366;SDS011;60030;52.274;8.040;2022-12-24T04:12:37;19.80;;;3.57;;
71366;SDS011;60030;52.274;8.040;2022-12-24T04:15:04;14.00;;;3.63;;
71366;SDS011;60030;52.274;8.040;2022-12-24T04:17:32;25.90;;;3.80;;
71366;SDS011;60030;52.274;8.040;2022-12-24T04:20:00;17.67;;;2.90;;
71366;SDS011;60030;52.274;8.040;2022-12-24T04:22:27;15.77;;;3.77;;
71366;SDS011;60030;52.274;8.040;2022-12-24T04:24:55;17.10;;;3.40;;
71366;SDS011;60030;52.274;8.040;2022-12-24T04:27:22;15.50;;;4.03;;
71366;SDS011;60030;52.274;8.040;2022-12-24T04:29:49;17.23;;;3.67;;
71366;SDS011;60030;52.274;8.040;2022-12-24T04:32:16;17.10;;;3.27;;
71366;SDS011;60030;52.274;8.040;2022-12-24T04:34:43;18.10;;;3.57;;
71366;SDS011;60030;52.274;8.040;2022-12-24T04:37:10;16.40;;;3.60;;
71366;SDS011;60030;52.274;8.040;2022-12-24T04:39:38;22.70;;;4.50;;
71366;SDS011;60030;52.274;8.040;2022-12-24T04:42:06;20.93;;;4.13;;
71366;SDS011;60030;52.274;8.040;2022-12-24T04:44:33;18.73;;;3.53;;
71366;SDS011;60030;52.274;8.040;2022-12-24T04:47:00;18.33;;;3.83;;
71366;SDS011;60030;52.274;8.040;2022-12-24T04:49:27;23.63;;;3.80;;
71366;SDS011;60030;52.274;8.040;2022-12-24T04:51:54;17.53;;;3.43;;
71366;SDS011;60030;52.274;8.040;2022-12-24T04:54:21;13.53;;;3.17;;
71366;SDS011;60030;52.274;8.040;2022-12-24T04:56:48;19.83;;;3.27;;
71366;SDS011;60030;52.274;8.040;2022-12-24T04:59:17;18.33;;;4.67;;
71366;SDS011;60030;52.274;8.040;2022-12-24T05:01:44;24.17;;;3.93;;
71366;SDS011;60030;52.274;8.040;2022-12-24T05:04:11;17.40;;;2.73;;
71366;SDS011;60030;52.274;8.040;2022-12-24T05:06:38;24.20;;;4.17;;
71366;SDS011;60030;52.274;8.040;2022-12-24T05:09:05;12.73;;;3.07;;
71366;SDS011;60030;52.274;8.040;2022-12-24T05:11:32;20.73;;;3.63;;
71366;SDS011;60030;52.274;8.040;2022-12-24T05:13:59;13.00;;;3.30;;
71366;SDS011;60030;52.274;8.040;2022-12-24T05:16:27;16.13;;;2.80;;
71366;SDS011;60030;52.274;8.040;2022-12-24T05:18:54;17.13;;;4.23;;
71366;SDS011;60030;52.274;8.040;2022-12-24T05:21:22;11.80;;;3.67;;
71366;SDS011;60030;52.274;8.040;2022-12-24T05:23:50;22.40;;;3.60;;
71366;SDS011;60030;52.274;8.040;2022-12-24T05:26:36;19.93;;;3.27;;
71366;SDS011;60030;52.274;8.040;2022-12-24T05:29:05;18.50;;;3.10;;
71366;SDS011;60030;52.274;8.040;2022-12-24T05:31:35;18.77;;;3.80;;
71366;SDS011;60030;52.274;8.040;2022-12-24T05:34:03;13.90;;;3.10;;
71366;SDS011;60030;52.274;8.040;2022-12-24T05:36:30;16.80;;;3.53;;
71366;SDS011;60030;52.274;8.040;2022-12-24T05:38:58;17.83;;;3.63;;
71366;SDS011;60030;52.274;8.040;2022-12-24T05:41:25;21.20;;;3.73;;
71366;SDS011;60030;52.274;8.040;2022-12-24T05:43:52;28.83;;;4.50;;
71366;SDS011;60030;52.274;8.040;2022-12-24T05:46:20;20.43;;;3.53;;
71366;SDS011;60030;52.274;8.040;2022-12-24T05:48:49;21.30;;;3.43;;
71366;SDS011;60030;52.274;8.040;2022-12-24T05:51:18;21.17;;;3.93;;
71366;SDS011;60030;52.274;8.040;2022-12-24T05:53:46;14.27;;;3.50;;
71366;SDS011;60030;52.274;8.040;2022-12-24T05:56:14;12.37;;;3.07;;
71366;SDS011;60030;52.274;8.040;2022-12-24T05:58:44;17.50;;;3.90;;
71366;SDS011;60030;52.274;8.040;2022-12-24T06:01:11;19.77;;;3.90;;
71366;SDS011;60030;52.274;8.040;2022-12-24T06:03:39;20.37;;;3.73;;
71366;SDS011;60030;52.274;8.040;2022-12-24T06:06:08;20.67;;;3.53;;
71366;SDS011;60030;52.274;8.040;2022-12-24T06:08:36;13.03;;;3.43;;
71366;SDS011;60030;52.274;8.040;2022-12-24T06:11:06;13.13;;;2.90;;
71366;SDS011;60030;52.274;8.040;2022-12-24T06:13:35;14.43;;;3.67;;
71366;SDS011;60030;52.274;8.040;2022-12-24T06:16:04;15.83;;;3.13;;
71366;SDS011;60030;52.274;8.040;2022-12-24T06:18:32;14.53;;;3.03;;
71366;SDS011;60030;52.274;8.040;2022-12-24T06:21:02;21.90;;;3.77;;
71366;SDS011;60030;52.274;8.040;2022-12-24T06:23:32;17.40;;;3.87;;
71366;SDS011;60030;52.274;8.040;2022-12-24T06:26:01;18.77;;;3.77;;
71366;SDS011;60030;52.274;8.040;2022-12-24T06:28:30;16.70;;;4.20;;
71366;SDS011;60030;52.274;8.040;2022-12-24T06:30:58;15.97;;;3.27;;
71366;SDS011;60030;52.274;8.040;2022-12-24T06:33:26;28.30;;;3.70;;
71366;SDS011;60030;52.274;8.040;2022-12-24T06:35:53;20.20;;;3.97;;
71366;SDS011;60030;52.274;8.040;2022-12-24T06:38:20;23.13;;;4.43;;
71366;SDS011;60030;52.274;8.040;2022-12-24T06:40:49;13.60;;;3.77;;
71366;SDS011;60030;52.274;8.040;2022-12-24T06:43:16;16.63;;;3.63;;
71366;SDS011;60030;52.274;8.040;2022-12-24T06:45:43;27.00;;;4.57;;
71366;SDS011;60030;52.274;8.040;2022-12-24T06:48:11;22.23;;;4.00;;
71366;SDS011;60030;52.274;8.040;2022-12-24T06:50:39;17.97;;;4.37;;
71366;SDS011;60030;52.274;8.040;2022-12-24T06:53:07;15.17;;;3.93;;
71366;SDS011;60030;52.274;8.040;2022-12-24T06:55:34;18.47;;;4.23;;
71366;SDS011;60030;52.274;8.040;2022-12-24T06:58:03;17.13;;;3.63;;
71366;SDS011;60030;52.274;8.040;2022-12-24T07:00:30;22.50;;;4.33;;
71366;SDS011;60030;52.274;8.040;2022-12-24T07:02:57;23.93;;;4.57;;
71366;SDS011;60030;52.274;8.040;2022-12-24T07:05:24;24.17;;;4.13;;
71366;SDS011;60030;52.274;8.040;2022-12-24T07:07:51;16.70;;;4.30;;
71366;SDS011;60030;52.274;8.040;2022-12-24T07:10:19;17.07;;;4.10;;
71366;SDS011;60030;52.274;8.040;2022-12-24T07:12:46;24.17;;;4.30;;
71366;SDS011;60030;52.274;8.040;2022-12-24T07:15:15;16.80;;;4.33;;
71366;SDS011;60030;52.274;8.040;2022-12-24T07:17:43;19.60;;;4.87;;
71366;SDS011;60030;52.274;8.040;2022-12-24T07:20:11;18.13;;;4.87;;
71366;SDS011;60030;52.274;8.040;2022-12-24T07:22:39;22.37;;;4.57;;
71366;SDS011;60030;52.274;8.040;2022-12-24T07:25:07;20.13;;;4.43;;
71366;SDS011;60030;52.274;8.040;2022-12-24T07:27:35;23.23;;;5.07;;
71366;SDS011;60030;52.274;8.040;2022-12-24T07:30:03;16.17;;;4.13;;
71366;SDS011;60030;52.274;8.040;2022-12-24T07:32:32;26.00;;;4.87;;
71366;SDS011;60030;52.274;8.040;2022-12-24T07:34:59;22.50;;;5.40;;
71366;SDS011;60030;52.274;8.040;2022-12-24T07:37:26;21.87;;;4.70;;
71366;SDS011;60030;52.274;8.040;2022-12-24T07:39:53;19.07;;;5.03;;
71366;SDS011;60030;52.274;8.040;2022-12-24T07:42:20;14.30;;;4.20;;
71366;SDS011;60030;52.274;8.040;2022-12-24T07:44:48;23.07;;;5.23;;
71366;SDS011;60030;52.274;8.040;2022-12-24T07:47:15;25.40;;;5.17;;
71366;SDS011;60030;52.274;8.040;2022-12-24T07:49:43;23.33;;;5.70;;
71366;SDS011;60030;52.274;8.040;2022-12-24T07:52:11;19.13;;;5.20;;
71366;SDS011;60030;52.274;8.040;2022-12-24T07:54:38;23.47;;;5.57;;
71366;SDS011;60030;52.274;8.040;2022-12-24T07:57:05;20.00;;;6.10;;
71366;SDS011;60030;52.274;8.040;2022-12-24T07:59:32;21.10;;;5.77;;
71366;SDS011;60030;52.274;8.040;2022-12-24T08:01:59;22.67;;;5.40;;
71366;SDS011;60030;52.274;8.040;2022-12-24T08:04:26;24.50;;;5.60;;
71366;SDS011;60030;52.274;8.040;2022-12-24T08:06:54;22.33;;;6.07;;
71366;SDS011;60030;52.274;8.040;2022-12-24T08:09:21;21.67;;;6.70;;
71366;SDS011;60030;52.274;8.040;2022-12-24T08:11:48;19.97;;;6.43;;
71366;SDS011;60030;52.274;8.040;2022-12-24T08:14:15;19.73;;;5.63;;
71366;SDS011;60030;52.274;8.040;2022-12-24T08:16:42;27.03;;;6.90;;
71366;SDS011;60030;52.274;8.040;2022-12-24T08:19:09;18.60;;;6.63;;
71366;SDS011;60030;52.274;8.040;2022-12-24T08:21:36;22.23;;;6.33;;
71366;SDS011;60030;52.274;8.040;2022-12-24T08:24:05;20.80;;;6.97;;
71366;SDS011;60030;52.274;8.040;2022-12-24T08:26:32;16.27;;;6.17;;
71366;SDS011;60030;52.274;8.040;2022-12-24T08:29:00;20.97;;;7.10;;
71366;SDS011;60030;52.274;8.040;2022-12-24T08:31:27;15.60;;;5.97;;
71366;SDS011;60030;52.274;8.040;2022-12-24T08:33:54;15.77;;;5.80;;
71366;SDS011;60030;52.274;8.040;2022-12-24T08:36:21;17.93;;;6.07;;
71366;SDS011;60030;52.274;8.040;2022-12-24T08:38:48;17.37;;;6.27;;
71366;SDS011;60030;52.274;8.040;2022-12-24T08:41:16;20.07;;;6.13;;
71366;SDS011;60030;52.274;8.040;2022-12-24T08:43:43;26.93;;;6.27;;
71366;SDS011;60030;52.274;8.040;2022-12-24T08:46:10;28.70;;;7.10;;
71366;SDS011;60030;52.274;8.040;2022-12-24T08:48:38;18.67;;;6.47;;
71366;SDS011;60030;52.274;8.040;2022-12-24T08:51:05;20.90;;;6.10;;
71366;SDS011;60030;52.274;8.040;2022-12-24T08:53:33;24.13;;;5.90;;
71366;SDS011;60030;52.274;8.040;2022-12-24T08:56:01;26.73;;;6.87;;
71366;SDS011;60030;52.274;8.040;2022-12-24T08:58:30;20.87;;;7.07;;
71366;SDS011;60030;52.274;8.040;2022-12-24T09:00:57;16.90;;;5.73;;
71366;SDS011;60030;52.274;8.040;2022-12-24T09:03:25;17.77;;;6.10;;
71366;SDS011;60030;52.274;8.040;2022-12-24T09:05:52;19.07;;;5.53;;
71366;SDS011;60030;52.274;8.040;2022-12-24T09:08:19;21.30;;;5.87;;
71366;SDS011;60030;52.274;8.040;2022-12-24T09:10:47;22.17;;;6.30;;
71366;SDS011;60030;52.274;8.040;2022-12-24T09:13:14;18.50;;;5.40;;
71366;SDS011;60030;52.274;8.040;2022-12-24T09:15:42;14.87;;;5.53;;
71366;SDS011;60030;52.274;8.040;2022-12-24T09:18:18;13.87;;;5.00;;
71366;SDS011;60030;52.274;8.040;2022-12-24T09:20:45;16.10;;;5.97;;
71366;SDS011;60030;52.274;8.040;2022-12-24T09:23:12;23.30;;;5.57;;
71366;SDS011;60030;52.274;8.040;2022-12-24T09:25:39;15.80;;;6.00;;
71366;SDS011;60030;52.274;8.040;2022-12-24T09:28:07;19.57;;;6.43;;
71366;SDS011;60030;52.274;8.040;2022-12-24T09:30:34;20.80;;;6.20;;
71366;SDS011;60030;52.274;8.040;2022-12-24T09:33:02;19.30;;;5.40;;
71366;SDS011;60030;52.274;8.040;2022-12-24T09:35:29;19.73;;;5.83;;
71366;SDS011;60030;52.274;8.040;2022-12-24T09:37:56;16.20;;;5.20;;
71366;SDS011;60030;52.274;8.040;2022-12-24T09:40:29;16.43;;;5.40;;
71366;SDS011;60030;52.274;8.040;2022-12-24T09:43:02;20.73;;;4.93;;
71366;SDS011;60030;52.274;8.040;2022-12-24T09:45:37;16.20;;;4.30;;
71366;SDS011;60030;52.274;8.040;2022-12-24T09:48:11;15.43;;;4.53;;
71366;SDS011;60030;52.274;8.040;2022-12-24T09:50:43;13.20;;;5.90;;
71366;SDS011;60030;52.274;8.040;2022-12-24T09:53:16;14.80;;;4.60;;
71366;SDS011;60030;52.274;8.040;2022-12-24T09:55:47;15.07;;;4.40;;
71366;SDS011;60030;52.274;8.040;2022-12-24T09:58:19;9.87;;;4.27;;
71366;SDS011;60030;52.274;8.040;2022-12-24T10:00:50;18.80;;;5.23;;
71366;SDS011;60030;52.274;8.040;2022-12-24T10:03:19;16.43;;;4.60;;
71366;SDS011;60030;52.274;8.040;2022-12-24T10:05:48;14.90;;;4.83;;
71366;SDS011;60030;52.274;8.040;2022-12-24T10:08:25;13.20;;;4.40;;
71366;SDS011;60030;52.274;8.040;2022-12-24T10:10:58;16.00;;;4.90;;
71366;SDS011;60030;52.274;8.040;2022-12-24T10:13:33;12.90;;;5.37;;
71366;SDS011;60030;52.274;8.040;2022-12-24T10:16:09;18.00;;;5.00;;
71366;SDS011;60030;52.274;8.040;2022-12-24T10:18:49;18.77;;;5.43;;
71366;SDS011;60030;52.274;8.040;2022-12-24T10:21:26;16.87;;;5.23;;
71366;SDS011;60030;52.274;8.040;2022-12-24T10:23:59;11.93;;;4.80;;
71366;SDS011;60030;52.274;8.040;2022-12-24T10:26:34;20.13;;;5.63;;
71366;SDS011;60030;52.274;8.040;2022-12-24T10:29:07;16.17;;;5.10;;
71366;SDS011;60030;52.274;8.040;2022-12-24T10:31:40;29.13;;;7.17;;
71366;SDS011;60030;52.274;8.040;2022-12-24T10:34:18;18.83;;;5.27;;
71366;SDS011;60030;52.274;8.040;2022-12-24T10:36:48;18.43;;;6.20;;
71366;SDS011;60030;52.274;8.040;2022-12-24T10:39:16;23.20;;;5.93;;
71366;SDS011;60030;52.274;8.040;2022-12-24T10:41:45;19.77;;;5.83;;
71366;SDS011;60030;52.274;8.040;2022-12-24T10:44:15;17.33;;;4.90;;
71366;SDS011;60030;52.274;8.040;2022-12-24T10:46:46;18.87;;;5.53;;
71366;SDS011;60030;52.274;8.040;2022-12-24T10:49:14;18.43;;;5.50;;
71366;SDS011;60030;52.274;8.040;2022-12-24T10:51:46;17.37;;;6.10;;
71366;SDS011;60030;52.274;8.040;2022-12-24T10:54:16;19.00;;;5.30;;
71366;SDS011;60030;52.274;8.040;2022-12-24T10:56:46;20.17;;;5.30;;
71366;SDS011;60030;52.274;8.040;2022-12-24T10:59:21;14.53;;;5.30;;
71366;SDS011;60030;52.274;8.040;2022-12-24T11:01:50;18.20;;;5.10;;
71366;SDS011;60030;52.274;8.040;2022-12-24T11:04:20;11.17;;;4.57;;
71366;SDS011;60030;52.274;8.040;2022-12-24T11:06:52;16.03;;;4.60;;
71366;SDS011;60030;52.274;8.040;2022-12-24T11:09:22;21.60;;;5.37;;
71366;SDS011;60030;52.274;8.040;2022-12-24T11:11:50;15.27;;;5.67;;
71366;SDS011;60030;52.274;8.040;2022-12-24T11:14:18;21.63;;;5.70;;
71366;SDS011;60030;52.274;8.040;2022-12-24T11:16:47;23.23;;;5.17;;
71366;SDS011;60030;52.274;8.040;2022-12-24T11:19:18;20.60;;;4.83;;
71366;SDS011;60030;52.274;8.040;2022-12-24T11:21:56;17.57;;;4.67;;
71366;SDS011;60030;52.274;8.040;2022-12-24T11:24:25;14.23;;;4.73;;
71366;SDS011;60030;52.274;8.040;2022-12-24T11:26:54;21.30;;;4.77;;
71366;SDS011;60030;52.274;8.040;2022-12-24T11:32:44;18.87;;;5.10;;
71366;SDS011;60030;52.274;8.040;2022-12-24T11:35:15;18.33;;;5.03;;
71366;SDS011;60030;52.274;8.040;2022-12-24T11:37:43;16.40;;;4.97;;
71366;SDS011;60030;52.274;8.040;2022-12-24T11:40:18;21.00;;;4.70;;
71366;SDS011;60030;52.274;8.040;2022-12-24T11:42:46;18.67;;;4.70;;
71366;SDS011;60030;52.274;8.040;2022-12-24T11:45:19;17.20;;;4.73;;
71366;SDS011;60030;52.274;8.040;2022-12-24T11:47:48;17.37;;;5.03;;
71366;SDS011;60030;52.274;8.040;2022-12-24T11:50:22;19.90;;;5.30;;
71366;SDS011;60030;52.274;8.040;2022-12-24T11:52:51;20.53;;;5.20;;
71366;SDS011;60030;52.274;8.040;2022-12-24T11:55:27;13.47;;;4.30;;
71366;SDS011;60030;52.274;8.040;2022-12-24T11:58:02;18.40;;;4.97;;
71366;SDS011;60030;52.274;8.040;2022-12-24T12:00:39;18.57;;;4.93;;
71366;SDS011;60030;52.274;8.040;2022-12-24T12:03:11;10.87;;;4.23;;
71366;SDS011;60030;52.274;8.040;2022-12-24T12:05:50;19.37;;;5.17;;
71366;SDS011;60030;52.274;8.040;2022-12-24T12:08:19;21.27;;;5.13;;
71366;SDS011;60030;52.274;8.040;2022-12-24T12:10:48;19.90;;;5.73;;
71366;SDS011;60030;52.274;8.040;2022-12-24T12:13:18;19.83;;;5.27;;
71366;SDS011;60030;52.274;8.040;2022-12-24T12:15:50;21.80;;;5.57;;
71366;SDS011;60030;52.274;8.040;2022-12-24T12:18:27;12.77;;;4.27;;
71366;SDS011;60030;52.274;8.040;2022-12-24T12:21:02;17.77;;;5.00;;
71366;SDS011;60030;52.274;8.040;2022-12-24T12:23:33;15.07;;;4.43;;
71366;SDS011;60030;52.274;8.040;2022-12-24T12:26:03;16.20;;;4.57;;
71366;SDS011;60030;52.274;8.040;2022-12-24T12:28:37;16.63;;;4.03;;
71366;SDS011;60030;52.274;8.040;2022-12-24T12:31:10;17.07;;;5.70;;
71366;SDS011;60030;52.274;8.040;2022-12-24T12:33:45;16.60;;;4.20;;
71366;SDS011;60030;52.274;8.040;2022-12-24T12:36:17;12.53;;;4.10;;
71366;SDS011;60030;52.274;8.040;2022-12-24T12:38:48;18.97;;;4.30;;
71366;SDS011;60030;52.274;8.040;2022-12-24T12:41:20;17.07;;;4.70;;
71366;SDS011;60030;52.274;8.040;2022-12-24T12:44:00;22.23;;;4.47;;
71366;SDS011;60030;52.274;8.040;2022-12-24T12:46:42;19.63;;;7.37;;
71366;SDS011;60030;52.274;8.040;2022-12-24T12:49:23;13.43;;;3.80;;
71366;SDS011;60030;52.274;8.040;2022-12-24T12:52:02;17.33;;;4.30;;
71366;SDS011;60030;52.274;8.040;2022-12-24T12:54:42;17.10;;;4.30;;
71366;SDS011;60030;52.274;8.040;2022-12-24T12:57:20;19.60;;;4.43;;
71366;SDS011;60030;52.274;8.040;2022-12-24T12:59:51;19.43;;;4.70;;
71366;SDS011;60030;52.274;8.040;2022-12-24T13:02:24;15.40;;;4.43;;
71366;SDS011;60030;52.274;8.040;2022-12-24T13:08:04;11.70;;;4.03;;
71366;SDS011;60030;52.274;8.040;2022-12-24T13:11:02;12.77;;;4.50;;
71366;SDS011;60030;52.274;8.040;2022-12-24T13:16:33;15.40;;;3.80;;
71366;SDS011;60030;52.274;8.040;2022-12-24T13:19:13;15.33;;;3.93;;
71366;SDS011;60030;52.274;8.040;2022-12-24T13:21:49;15.03;;;4.33;;
71366;SDS011;60030;52.274;8.040;2022-12-24T13:24:22;11.50;;;3.47;;
71366;SDS011;60030;52.274;8.040;2022-12-24T13:27:02;10.40;;;4.17;;
71366;SDS011;60030;52.274;8.040;2022-12-24T13:29:41;13.37;;;4.37;;
71366;SDS011;60030;52.274;8.040;2022-12-24T13:35:27;18.77;;;4.00;;
71366;SDS011;60030;52.274;8.040;2022-12-24T13:38:28;21.47;;;4.67;;
71366;SDS011;60030;52.274;8.040;2022-12-24T13:44:26;14.07;;;4.13;;
71366;SDS011;60030;52.274;8.040;2022-12-24T13:46:58;12.83;;;4.10;;
71366;SDS011;60030;52.274;8.040;2022-12-24T13:49:43;14.27;;;4.43;;
71366;SDS011;60030;52.274;8.040;2022-12-24T13:52:15;18.57;;;4.20;;
71366;SDS011;60030;52.274;8.040;2022-12-24T13:54:45;17.47;;;4.30;;
71366;SDS011;60030;52.274;8.040;2022-12-24T13:57:28;15.63;;;4.13;;
71366;SDS011;60030;52.274;8.040;2022-12-24T14:00:00;15.83;;;4.30;;
71366;SDS011;60030;52.274;8.040;2022-12-24T14:02:37;14.60;;;4.20;;
71366;SDS011;60030;52.274;8.040;2022-12-24T14:05:15;19.70;;;3.93;;
71366;SDS011;60030;52.274;8.040;2022-12-24T14:07:46;14.30;;;3.97;;
71366;SDS011;60030;52.274;8.040;2022-12-24T14:10:19;19.87;;;3.60;;
71366;SDS011;60030;52.274;8.040;2022-12-24T14:12:49;17.00;;;4.90;;
71366;SDS011;60030;52.274;8.040;2022-12-24T14:18:26;21.43;;;4.90;;
71366;SDS011;60030;52.274;8.040;2022-12-24T14:20:56;22.67;;;5.73;;
71366;SDS011;60030;52.274;8.040;2022-12-24T14:23:29;13.53;;;4.80;;
71366;SDS011;60030;52.274;8.040;2022-12-24T14:26:10;22.53;;;4.90;;
71366;SDS011;60030;52.274;8.040;2022-12-24T14:28:42;12.10;;;4.50;;
71366;SDS011;60030;52.274;8.040;2022-12-24T14:31:13;17.73;;;4.07;;
71366;SDS011;60030;52.274;8.040;2022-12-24T14:33:43;17.20;;;4.47;;
71366;SDS011;60030;52.274;8.040;2022-12-24T14:36:11;12.63;;;4.10;;
71366;SDS011;60030;52.274;8.040;2022-12-24T14:38:40;17.87;;;5.40;;
71366;SDS011;60030;52.274;8.040;2022-12-24T14:41:14;13.33;;;4.03;;
71366;SDS011;60030;52.274;8.040;2022-12-24T14:43:57;14.33;;;4.00;;
71366;SDS011;60030;52.274;8.040;2022-12-24T14:46:32;17.20;;;4.60;;
71366;SDS011;60030;52.274;8.040;2022-12-24T14:49:10;14.70;;;4.23;;
71366;SDS011;60030;52.274;8.040;2022-12-24T14:51:49;11.57;;;3.57;;
71366;SDS011;60030;52.274;8.040;2022-12-24T14:54:30;11.97;;;4.00;;
71366;SDS011;60030;52.274;8.040;2022-12-24T14:59:54;14.23;;;4.23;;
71366;SDS011;60030;52.274;8.040;2022-12-24T15:05:14;18.33;;;4.00;;
71366;SDS011;60030;52.274;8.040;2022-12-24T15:07:44;15.10;;;3.67;;
71366;SDS011;60030;52.274;8.040;2022-12-24T15:10:21;13.97;;;4.53;;
71366;SDS011;60030;52.274;8.040;2022-12-24T15:12:53;13.17;;;4.77;;
71366;SDS011;60030;52.274;8.040;2022-12-24T15:15:23;16.13;;;4.67;;
71366;SDS011;60030;52.274;8.040;2022-12-24T15:17:50;17.97;;;5.00;;
71366;SDS011;60030;52.274;8.040;2022-12-24T15:20:20;16.43;;;5.37;;
71366;SDS011;60030;52.274;8.040;2022-12-24T15:22:51;18.93;;;5.63;;
71366;SDS011;60030;52.274;8.040;2022-12-24T15:25:21;16.87;;;5.07;;
71366;SDS011;60030;52.274;8.040;2022-12-24T15:27:50;20.83;;;5.57;;